sensor_id;sensor_type;location;lat;lon;timestamp;P1;durP1;ratioP1;P2;durP2;ratioP2
13083;SDS011;6608;48.790;9.198;2022-11-15T00:01:47;135.90;;;61.20;;
13083;SDS011;6608;48.790;9.198;2022-11-15T00:04:14;132.93;;;61.07;;
13083;SDS011;6608;48.790;9.198;2022-11-15T00:06:41;136.53;;;61.30;;
13083;SDS011;6608;48.790;9.198;2022-11-15T00:09:07;131.90;;;60.77;;
13083;SDS011;6608;48.790;9.198;2022-11-15T00:11:33;132.43;;;59.93;;
13083;SDS011;6608;48.790;9.198;2022-11-15T00:14:00;132.70;;;60.03;;
13083;SDS011;6608;48.790;9.198;2022-11-15T00:16:29;130.67;;;59.80;;
13083;SDS011;6608;48.790;9.198;2022-11-15T00:18:56;133.30;;;61.03;;
13083;SDS011;6608;48.790;9.198;2022-11-15T00:21:23;136.73;;;60.63;;
13083;SDS011;6608;48.790;9.198;2022-11-15T00:23:49;134.80;;;60.53;;
13083;SDS011;6608;48.790;9.198;2022-11-15T00:26:16;134.33;;;60.13;;
13083;SDS011;6608;48.790;9.198;2022-11-15T00:28:43;132.23;;;60.53;;
13083;SDS011;6608;48.790;9.198;2022-11-15T00:31:11;128.27;;;58.87;;
13083;SDS011;6608;48.790;9.198;2022-11-15T00:33:39;134.03;;;59.73;;
13083;SDS011;6608;48.790;9.198;2022-11-15T00:36:06;129.30;;;59.20;;
13083;SDS011;6608;48.790;9.198;2022-11-15T00:38:35;129.40;;;59.47;;
13083;SDS011;6608;48.790;9.198;2022-11-15T00:41:02;129.77;;;59.93;;
13083;SDS011;6608;48.790;9.198;2022-11-15T00:43:29;132.67;;;60.33;;
13083;SDS011;6608;48.790;9.198;2022-11-15T00:45:56;128.50;;;59.43;;
13083;SDS011;6608;48.790;9.198;2022-11-15T00:48:22;129.90;;;59.00;;
13083;SDS011;6608;48.790;9.198;2022-11-15T00:50:50;133.47;;;59.97;;
13083;SDS011;6608;48.790;9.198;2022-11-15T00:53:16;132.17;;;58.27;;
13083;SDS011;6608;48.790;9.198;2022-11-15T00:55:43;130.30;;;58.57;;
13083;SDS011;6608;48.790;9.198;2022-11-15T00:58:09;131.20;;;60.33;;
13083;SDS011;6608;48.790;9.198;2022-11-15T01:00:36;128.43;;;59.30;;
13083;SDS011;6608;48.790;9.198;2022-11-15T01:03:02;136.80;;;63.80;;
13083;SDS011;6608;48.790;9.198;2022-11-15T01:05:28;132.33;;;58.83;;
13083;SDS011;6608;48.790;9.198;2022-11-15T01:07:56;131.23;;;59.77;;
13083;SDS011;6608;48.790;9.198;2022-11-15T01:10:23;127.20;;;57.77;;
13083;SDS011;6608;48.790;9.198;2022-11-15T01:12:50;127.07;;;58.67;;
13083;SDS011;6608;48.790;9.198;2022-11-15T01:15:17;131.70;;;59.13;;
13083;SDS011;6608;48.790;9.198;2022-11-15T01:17:43;132.90;;;59.53;;
13083;SDS011;6608;48.790;9.198;2022-11-15T01:20:10;132.40;;;60.50;;
13083;SDS011;6608;48.790;9.198;2022-11-15T01:22:37;128.87;;;58.70;;
13083;SDS011;6608;48.790;9.198;2022-11-15T01:25:05;129.73;;;59.87;;
13083;SDS011;6608;48.790;9.198;2022-11-15T01:27:32;127.40;;;58.93;;
13083;SDS011;6608;48.790;9.198;2022-11-15T01:29:58;130.20;;;59.53;;
13083;SDS011;6608;48.790;9.198;2022-11-15T01:32:24;130.93;;;59.37;;
13083;SDS011;6608;48.790;9.198;2022-11-15T01:34:51;129.80;;;59.70;;
13083;SDS011;6608;48.790;9.198;2022-11-15T01:37:17;130.73;;;60.03;;
13083;SDS011;6608;48.790;9.198;2022-11-15T01:39:44;130.63;;;60.23;;
13083;SDS011;6608;48.790;9.198;2022-11-15T01:42:13;126.63;;;58.33;;
13083;SDS011;6608;48.790;9.198;2022-11-15T01:44:43;127.33;;;58.60;;
13083;SDS011;6608;48.790;9.198;2022-11-15T01:47:11;126.00;;;58.47;;
13083;SDS011;6608;48.790;9.198;2022-11-15T01:49:40;126.90;;;58.70;;
13083;SDS011;6608;48.790;9.198;2022-11-15T01:52:09;126.70;;;58.47;;
13083;SDS011;6608;48.790;9.198;2022-11-15T01:54:36;127.03;;;57.63;;
13083;SDS011;6608;48.790;9.198;2022-11-15T01:57:03;128.10;;;58.03;;
13083;SDS011;6608;48.790;9.198;2022-11-15T01:59:31;125.00;;;57.40;;
13083;SDS011;6608;48.790;9.198;2022-11-15T02:01:58;130.50;;;57.80;;
13083;SDS011;6608;48.790;9.198;2022-11-15T02:04:25;126.90;;;58.17;;
13083;SDS011;6608;48.790;9.198;2022-11-15T02:06:53;123.13;;;56.97;;
13083;SDS011;6608;48.790;9.198;2022-11-15T02:09:20;128.03;;;57.70;;
13083;SDS011;6608;48.790;9.198;2022-11-15T02:11:46;130.20;;;58.80;;
13083;SDS011;6608;48.790;9.198;2022-11-15T02:14:13;125.40;;;58.63;;
13083;SDS011;6608;48.790;9.198;2022-11-15T02:16:43;126.03;;;58.37;;
13083;SDS011;6608;48.790;9.198;2022-11-15T02:19:19;127.10;;;58.83;;
13083;SDS011;6608;48.790;9.198;2022-11-15T02:21:49;126.10;;;58.63;;
13083;SDS011;6608;48.790;9.198;2022-11-15T02:24:31;128.17;;;58.90;;
13083;SDS011;6608;48.790;9.198;2022-11-15T02:27:19;128.23;;;58.67;;
13083;SDS011;6608;48.790;9.198;2022-11-15T02:29:57;124.77;;;58.07;;
13083;SDS011;6608;48.790;9.198;2022-11-15T02:32:27;128.20;;;58.53;;
13083;SDS011;6608;48.790;9.198;2022-11-15T02:34:56;128.83;;;58.57;;
13083;SDS011;6608;48.790;9.198;2022-11-15T02:37:25;124.37;;;58.07;;
13083;SDS011;6608;48.790;9.198;2022-11-15T02:39:57;123.17;;;57.33;;
13083;SDS011;6608;48.790;9.198;2022-11-15T02:42:28;124.77;;;58.50;;
13083;SDS011;6608;48.790;9.198;2022-11-15T02:45:16;125.50;;;57.87;;
13083;SDS011;6608;48.790;9.198;2022-11-15T02:47:45;124.20;;;57.40;;
13083;SDS011;6608;48.790;9.198;2022-11-15T02:50:13;124.90;;;58.63;;
13083;SDS011;6608;48.790;9.198;2022-11-15T02:52:44;125.43;;;58.13;;
13083;SDS011;6608;48.790;9.198;2022-11-15T02:55:24;125.57;;;57.73;;
13083;SDS011;6608;48.790;9.198;2022-11-15T02:57:52;123.43;;;57.53;;
13083;SDS011;6608;48.790;9.198;2022-11-15T03:00:23;125.83;;;58.17;;
13083;SDS011;6608;48.790;9.198;2022-11-15T03:02:57;124.90;;;58.17;;
13083;SDS011;6608;48.790;9.198;2022-11-15T03:05:29;125.03;;;58.33;;
13083;SDS011;6608;48.790;9.198;2022-11-15T03:08:00;126.97;;;58.10;;
13083;SDS011;6608;48.790;9.198;2022-11-15T03:10:31;127.23;;;58.37;;
13083;SDS011;6608;48.790;9.198;2022-11-15T03:12:59;126.20;;;58.87;;
13083;SDS011;6608;48.790;9.198;2022-11-15T03:15:30;123.90;;;57.90;;
13083;SDS011;6608;48.790;9.198;2022-11-15T03:17:59;130.90;;;58.40;;
13083;SDS011;6608;48.790;9.198;2022-11-15T03:20:26;125.43;;;58.27;;
13083;SDS011;6608;48.790;9.198;2022-11-15T03:22:54;125.17;;;58.77;;
13083;SDS011;6608;48.790;9.198;2022-11-15T03:25:22;124.00;;;58.43;;
13083;SDS011;6608;48.790;9.198;2022-11-15T03:27:51;123.33;;;58.27;;
13083;SDS011;6608;48.790;9.198;2022-11-15T03:30:18;125.70;;;58.53;;
13083;SDS011;6608;48.790;9.198;2022-11-15T03:32:45;122.80;;;57.60;;
13083;SDS011;6608;48.790;9.198;2022-11-15T03:35:14;129.20;;;58.93;;
13083;SDS011;6608;48.790;9.198;2022-11-15T03:37:44;127.57;;;58.47;;
13083;SDS011;6608;48.790;9.198;2022-11-15T03:40:11;126.10;;;58.63;;
13083;SDS011;6608;48.790;9.198;2022-11-15T03:42:39;123.70;;;58.10;;
13083;SDS011;6608;48.790;9.198;2022-11-15T03:45:12;125.67;;;58.03;;
13083;SDS011;6608;48.790;9.198;2022-11-15T03:47:39;124.30;;;58.00;;
13083;SDS011;6608;48.790;9.198;2022-11-15T03:50:08;122.17;;;56.87;;
13083;SDS011;6608;48.790;9.198;2022-11-15T03:52:37;126.23;;;58.10;;
13083;SDS011;6608;48.790;9.198;2022-11-15T03:55:04;125.27;;;57.57;;
13083;SDS011;6608;48.790;9.198;2022-11-15T03:57:30;128.37;;;57.80;;
13083;SDS011;6608;48.790;9.198;2022-11-15T03:59:57;125.50;;;57.77;;
13083;SDS011;6608;48.790;9.198;2022-11-15T04:02:23;125.33;;;57.97;;
13083;SDS011;6608;48.790;9.198;2022-11-15T04:04:50;124.17;;;58.03;;
13083;SDS011;6608;48.790;9.198;2022-11-15T04:07:16;123.43;;;57.67;;
13083;SDS011;6608;48.790;9.198;2022-11-15T04:09:44;128.33;;;58.23;;
13083;SDS011;6608;48.790;9.198;2022-11-15T04:12:28;124.63;;;58.30;;
13083;SDS011;6608;48.790;9.198;2022-11-15T04:15:02;122.40;;;57.10;;
13083;SDS011;6608;48.790;9.198;2022-11-15T04:17:35;125.97;;;58.10;;
13083;SDS011;6608;48.790;9.198;2022-11-15T04:20:02;123.63;;;56.80;;
13083;SDS011;6608;48.790;9.198;2022-11-15T04:22:46;123.50;;;57.67;;
13083;SDS011;6608;48.790;9.198;2022-11-15T04:25:32;124.50;;;57.83;;
13083;SDS011;6608;48.790;9.198;2022-11-15T04:27:58;121.90;;;57.33;;
13083;SDS011;6608;48.790;9.198;2022-11-15T04:30:24;127.97;;;61.07;;
13083;SDS011;6608;48.790;9.198;2022-11-15T04:32:51;122.43;;;57.93;;
13083;SDS011;6608;48.790;9.198;2022-11-15T04:35:17;123.77;;;57.93;;
13083;SDS011;6608;48.790;9.198;2022-11-15T04:37:43;121.73;;;57.80;;
13083;SDS011;6608;48.790;9.198;2022-11-15T04:40:10;124.83;;;58.10;;
13083;SDS011;6608;48.790;9.198;2022-11-15T04:42:38;121.53;;;56.70;;
13083;SDS011;6608;48.790;9.198;2022-11-15T04:45:06;126.37;;;57.30;;
13083;SDS011;6608;48.790;9.198;2022-11-15T04:47:33;127.83;;;60.80;;
13083;SDS011;6608;48.790;9.198;2022-11-15T04:49:59;122.37;;;57.83;;
13083;SDS011;6608;48.790;9.198;2022-11-15T04:52:26;121.00;;;57.63;;
13083;SDS011;6608;48.790;9.198;2022-11-15T04:54:52;122.57;;;57.30;;
13083;SDS011;6608;48.790;9.198;2022-11-15T04:57:18;125.43;;;58.53;;
13083;SDS011;6608;48.790;9.198;2022-11-15T04:59:46;121.03;;;57.03;;
13083;SDS011;6608;48.790;9.198;2022-11-15T05:02:13;124.63;;;57.30;;
13083;SDS011;6608;48.790;9.198;2022-11-15T05:04:39;124.33;;;57.80;;
13083;SDS011;6608;48.790;9.198;2022-11-15T05:07:05;123.10;;;58.50;;
13083;SDS011;6608;48.790;9.198;2022-11-15T05:09:31;122.47;;;57.13;;
13083;SDS011;6608;48.790;9.198;2022-11-15T05:11:57;125.50;;;58.30;;
13083;SDS011;6608;48.790;9.198;2022-11-15T05:14:24;121.67;;;57.47;;
13083;SDS011;6608;48.790;9.198;2022-11-15T05:16:52;122.43;;;57.90;;
13083;SDS011;6608;48.790;9.198;2022-11-15T05:19:18;119.70;;;56.60;;
13083;SDS011;6608;48.790;9.198;2022-11-15T05:21:45;121.10;;;56.97;;
13083;SDS011;6608;48.790;9.198;2022-11-15T05:24:11;122.80;;;57.33;;
13083;SDS011;6608;48.790;9.198;2022-11-15T05:26:37;121.43;;;56.90;;
13083;SDS011;6608;48.790;9.198;2022-11-15T05:29:04;121.97;;;57.70;;
13083;SDS011;6608;48.790;9.198;2022-11-15T05:31:30;122.80;;;56.93;;
13083;SDS011;6608;48.790;9.198;2022-11-15T05:33:58;123.23;;;57.07;;
13083;SDS011;6608;48.790;9.198;2022-11-15T05:36:27;125.00;;;57.37;;
13083;SDS011;6608;48.790;9.198;2022-11-15T05:38:55;122.33;;;57.30;;
13083;SDS011;6608;48.790;9.198;2022-11-15T05:41:22;122.63;;;56.33;;
13083;SDS011;6608;48.790;9.198;2022-11-15T05:43:51;121.60;;;57.67;;
13083;SDS011;6608;48.790;9.198;2022-11-15T05:46:17;125.53;;;57.03;;
13083;SDS011;6608;48.790;9.198;2022-11-15T05:48:45;122.47;;;58.03;;
13083;SDS011;6608;48.790;9.198;2022-11-15T05:51:15;126.40;;;57.67;;
13083;SDS011;6608;48.790;9.198;2022-11-15T05:53:43;122.20;;;57.63;;
13083;SDS011;6608;48.790;9.198;2022-11-15T05:56:10;122.47;;;58.00;;
13083;SDS011;6608;48.790;9.198;2022-11-15T05:58:37;121.93;;;57.50;;
13083;SDS011;6608;48.790;9.198;2022-11-15T06:01:04;121.17;;;57.63;;
13083;SDS011;6608;48.790;9.198;2022-11-15T06:03:31;123.83;;;57.67;;
13083;SDS011;6608;48.790;9.198;2022-11-15T06:05:57;122.37;;;57.63;;
13083;SDS011;6608;48.790;9.198;2022-11-15T06:08:25;127.77;;;58.00;;
13083;SDS011;6608;48.790;9.198;2022-11-15T06:10:51;123.80;;;57.60;;
13083;SDS011;6608;48.790;9.198;2022-11-15T06:13:18;123.00;;;57.97;;
13083;SDS011;6608;48.790;9.198;2022-11-15T06:15:44;124.03;;;58.23;;
13083;SDS011;6608;48.790;9.198;2022-11-15T06:18:11;123.33;;;58.50;;
13083;SDS011;6608;48.790;9.198;2022-11-15T06:20:37;127.40;;;57.67;;
13083;SDS011;6608;48.790;9.198;2022-11-15T06:23:04;126.77;;;59.03;;
13083;SDS011;6608;48.790;9.198;2022-11-15T06:25:32;122.30;;;56.80;;
13083;SDS011;6608;48.790;9.198;2022-11-15T06:27:59;123.27;;;58.87;;
13083;SDS011;6608;48.790;9.198;2022-11-15T06:30:25;121.20;;;57.27;;
13083;SDS011;6608;48.790;9.198;2022-11-15T06:32:57;123.77;;;58.03;;
13083;SDS011;6608;48.790;9.198;2022-11-15T06:35:24;123.67;;;58.10;;
13083;SDS011;6608;48.790;9.198;2022-11-15T06:37:50;125.93;;;57.90;;
13083;SDS011;6608;48.790;9.198;2022-11-15T06:40:17;123.57;;;57.23;;
13083;SDS011;6608;48.790;9.198;2022-11-15T06:42:45;126.37;;;59.23;;
13083;SDS011;6608;48.790;9.198;2022-11-15T06:45:12;126.07;;;58.47;;
13083;SDS011;6608;48.790;9.198;2022-11-15T06:47:43;122.10;;;57.23;;
13083;SDS011;6608;48.790;9.198;2022-11-15T06:50:10;126.73;;;58.67;;
13083;SDS011;6608;48.790;9.198;2022-11-15T06:52:37;122.57;;;57.63;;
13083;SDS011;6608;48.790;9.198;2022-11-15T06:55:03;121.90;;;57.63;;
13083;SDS011;6608;48.790;9.198;2022-11-15T06:57:30;125.50;;;58.20;;
13083;SDS011;6608;48.790;9.198;2022-11-15T06:59:58;121.47;;;57.50;;
13083;SDS011;6608;48.790;9.198;2022-11-15T07:02:25;123.73;;;58.40;;
13083;SDS011;6608;48.790;9.198;2022-11-15T07:04:51;122.97;;;57.83;;
13083;SDS011;6608;48.790;9.198;2022-11-15T07:07:17;126.83;;;60.70;;
13083;SDS011;6608;48.790;9.198;2022-11-15T07:09:44;124.80;;;59.60;;
13083;SDS011;6608;48.790;9.198;2022-11-15T07:12:10;125.67;;;59.97;;
13083;SDS011;6608;48.790;9.198;2022-11-15T07:14:37;130.97;;;61.83;;
13083;SDS011;6608;48.790;9.198;2022-11-15T07:17:05;126.43;;;59.30;;
13083;SDS011;6608;48.790;9.198;2022-11-15T07:19:32;126.10;;;58.80;;
13083;SDS011;6608;48.790;9.198;2022-11-15T07:21:58;125.80;;;59.57;;
13083;SDS011;6608;48.790;9.198;2022-11-15T07:24:24;127.60;;;59.10;;
13083;SDS011;6608;48.790;9.198;2022-11-15T07:26:51;132.97;;;59.37;;
13083;SDS011;6608;48.790;9.198;2022-11-15T07:29:17;127.87;;;59.57;;
13083;SDS011;6608;48.790;9.198;2022-11-15T07:31:44;130.10;;;60.03;;
13083;SDS011;6608;48.790;9.198;2022-11-15T07:34:12;129.80;;;59.73;;
13083;SDS011;6608;48.790;9.198;2022-11-15T07:36:38;133.10;;;59.80;;
13083;SDS011;6608;48.790;9.198;2022-11-15T07:39:05;134.57;;;61.83;;
13083;SDS011;6608;48.790;9.198;2022-11-15T07:41:31;131.50;;;61.03;;
13083;SDS011;6608;48.790;9.198;2022-11-15T07:43:58;131.77;;;60.00;;
13083;SDS011;6608;48.790;9.198;2022-11-15T07:46:24;136.27;;;62.03;;
13083;SDS011;6608;48.790;9.198;2022-11-15T07:48:50;137.20;;;61.60;;
13083;SDS011;6608;48.790;9.198;2022-11-15T07:51:18;138.83;;;62.07;;
13083;SDS011;6608;48.790;9.198;2022-11-15T07:53:45;139.47;;;61.70;;
13083;SDS011;6608;48.790;9.198;2022-11-15T07:56:11;137.80;;;61.00;;
13083;SDS011;6608;48.790;9.198;2022-11-15T07:58:38;139.63;;;63.27;;
13083;SDS011;6608;48.790;9.198;2022-11-15T08:01:04;141.40;;;63.10;;
13083;SDS011;6608;48.790;9.198;2022-11-15T08:03:31;138.73;;;62.87;;
13083;SDS011;6608;48.790;9.198;2022-11-15T08:05:58;141.93;;;64.70;;
13083;SDS011;6608;48.790;9.198;2022-11-15T08:08:26;141.63;;;60.97;;
13083;SDS011;6608;48.790;9.198;2022-11-15T08:10:52;144.17;;;63.37;;
13083;SDS011;6608;48.790;9.198;2022-11-15T08:13:19;143.00;;;62.70;;
13083;SDS011;6608;48.790;9.198;2022-11-15T08:15:49;142.13;;;62.13;;
13083;SDS011;6608;48.790;9.198;2022-11-15T08:18:23;141.80;;;63.37;;
13083;SDS011;6608;48.790;9.198;2022-11-15T08:20:50;138.17;;;61.27;;
13083;SDS011;6608;48.790;9.198;2022-11-15T08:23:16;145.93;;;62.07;;
13083;SDS011;6608;48.790;9.198;2022-11-15T08:25:44;141.30;;;61.67;;
13083;SDS011;6608;48.790;9.198;2022-11-15T08:28:10;141.73;;;61.13;;
13083;SDS011;6608;48.790;9.198;2022-11-15T08:30:37;139.83;;;61.77;;
13083;SDS011;6608;48.790;9.198;2022-11-15T08:33:09;139.90;;;61.73;;
13083;SDS011;6608;48.790;9.198;2022-11-15T08:35:36;140.83;;;62.83;;
13083;SDS011;6608;48.790;9.198;2022-11-15T08:38:02;139.97;;;62.27;;
13083;SDS011;6608;48.790;9.198;2022-11-15T08:40:28;145.23;;;62.43;;
13083;SDS011;6608;48.790;9.198;2022-11-15T08:42:56;142.43;;;62.03;;
13083;SDS011;6608;48.790;9.198;2022-11-15T08:45:23;143.70;;;63.03;;
13083;SDS011;6608;48.790;9.198;2022-11-15T08:47:50;148.73;;;63.40;;
13083;SDS011;6608;48.790;9.198;2022-11-15T08:50:16;148.80;;;65.17;;
13083;SDS011;6608;48.790;9.198;2022-11-15T08:52:43;149.13;;;64.27;;
13083;SDS011;6608;48.790;9.198;2022-11-15T08:55:09;151.13;;;67.00;;
13083;SDS011;6608;48.790;9.198;2022-11-15T08:57:35;152.57;;;66.03;;
13083;SDS011;6608;48.790;9.198;2022-11-15T09:00:04;154.87;;;65.83;;
13083;SDS011;6608;48.790;9.198;2022-11-15T09:02:30;156.40;;;68.77;;
13083;SDS011;6608;48.790;9.198;2022-11-15T09:04:57;157.83;;;68.33;;
13083;SDS011;6608;48.790;9.198;2022-11-15T09:07:26;165.83;;;69.80;;
13083;SDS011;6608;48.790;9.198;2022-11-15T09:09:54;157.40;;;65.17;;
13083;SDS011;6608;48.790;9.198;2022-11-15T09:12:21;174.87;;;77.40;;
13083;SDS011;6608;48.790;9.198;2022-11-15T09:14:47;161.53;;;70.10;;
13083;SDS011;6608;48.790;9.198;2022-11-15T09:17:15;161.93;;;66.73;;
13083;SDS011;6608;48.790;9.198;2022-11-15T09:19:41;158.10;;;66.90;;
13083;SDS011;6608;48.790;9.198;2022-11-15T09:22:08;156.80;;;66.50;;
13083;SDS011;6608;48.790;9.198;2022-11-15T09:24:34;159.93;;;66.50;;
13083;SDS011;6608;48.790;9.198;2022-11-15T09:27:01;158.03;;;67.57;;
13083;SDS011;6608;48.790;9.198;2022-11-15T09:29:27;161.60;;;69.43;;
13083;SDS011;6608;48.790;9.198;2022-11-15T09:31:53;162.47;;;69.07;;
13083;SDS011;6608;48.790;9.198;2022-11-15T09:34:21;161.97;;;69.20;;
13083;SDS011;6608;48.790;9.198;2022-11-15T09:36:48;161.60;;;68.63;;
13083;SDS011;6608;48.790;9.198;2022-11-15T09:39:15;165.60;;;70.47;;
13083;SDS011;6608;48.790;9.198;2022-11-15T09:41:55;163.27;;;69.97;;
13083;SDS011;6608;48.790;9.198;2022-11-15T09:44:29;162.37;;;68.37;;
13083;SDS011;6608;48.790;9.198;2022-11-15T09:47:02;167.67;;;71.70;;
13083;SDS011;6608;48.790;9.198;2022-11-15T09:49:32;166.80;;;71.17;;
13083;SDS011;6608;48.790;9.198;2022-11-15T09:51:59;166.80;;;70.93;;
13083;SDS011;6608;48.790;9.198;2022-11-15T09:54:27;173.07;;;72.23;;
13083;SDS011;6608;48.790;9.198;2022-11-15T09:56:55;170.57;;;71.67;;
13083;SDS011;6608;48.790;9.198;2022-11-15T09:59:27;169.37;;;72.63;;
13083;SDS011;6608;48.790;9.198;2022-11-15T10:02:00;167.33;;;70.63;;
13083;SDS011;6608;48.790;9.198;2022-11-15T10:04:30;170.67;;;72.10;;
13083;SDS011;6608;48.790;9.198;2022-11-15T10:07:01;166.63;;;70.27;;
13083;SDS011;6608;48.790;9.198;2022-11-15T10:09:29;166.97;;;70.70;;
13083;SDS011;6608;48.790;9.198;2022-11-15T10:11:57;167.07;;;69.27;;
13083;SDS011;6608;48.790;9.198;2022-11-15T10:14:25;168.70;;;69.53;;
13083;SDS011;6608;48.790;9.198;2022-11-15T10:17:11;162.80;;;69.13;;
13083;SDS011;6608;48.790;9.198;2022-11-15T10:19:43;165.10;;;69.00;;
13083;SDS011;6608;48.790;9.198;2022-11-15T10:22:21;160.57;;;67.80;;
13083;SDS011;6608;48.790;9.198;2022-11-15T10:24:49;161.03;;;67.93;;
13083;SDS011;6608;48.790;9.198;2022-11-15T10:27:17;160.30;;;67.63;;
13083;SDS011;6608;48.790;9.198;2022-11-15T10:29:44;158.73;;;65.97;;
13083;SDS011;6608;48.790;9.198;2022-11-15T10:32:11;160.10;;;66.37;;
13083;SDS011;6608;48.790;9.198;2022-11-15T10:34:37;158.33;;;66.70;;
13083;SDS011;6608;48.790;9.198;2022-11-15T10:37:04;154.07;;;64.60;;
13083;SDS011;6608;48.790;9.198;2022-11-15T10:39:31;154.57;;;66.23;;
13083;SDS011;6608;48.790;9.198;2022-11-15T10:42:00;158.17;;;65.90;;
13083;SDS011;6608;48.790;9.198;2022-11-15T10:44:41;158.30;;;66.57;;
13083;SDS011;6608;48.790;9.198;2022-11-15T10:47:24;155.83;;;66.47;;
13083;SDS011;6608;48.790;9.198;2022-11-15T10:49:55;155.57;;;65.33;;
13083;SDS011;6608;48.790;9.198;2022-11-15T10:52:22;157.27;;;66.00;;
13083;SDS011;6608;48.790;9.198;2022-11-15T10:54:51;153.20;;;64.90;;
13083;SDS011;6608;48.790;9.198;2022-11-15T10:57:18;155.83;;;68.13;;
13083;SDS011;6608;48.790;9.198;2022-11-15T10:59:45;157.93;;;68.43;;
13083;SDS011;6608;48.790;9.198;2022-11-15T11:02:29;159.20;;;67.50;;
13083;SDS011;6608;48.790;9.198;2022-11-15T11:04:56;156.10;;;67.60;;
13083;SDS011;6608;48.790;9.198;2022-11-15T11:07:23;156.97;;;67.83;;
13083;SDS011;6608;48.790;9.198;2022-11-15T11:09:57;159.10;;;69.37;;
13083;SDS011;6608;48.790;9.198;2022-11-15T11:12:26;158.17;;;67.77;;
13083;SDS011;6608;48.790;9.198;2022-11-15T11:14:53;157.77;;;67.83;;
13083;SDS011;6608;48.790;9.198;2022-11-15T11:17:22;156.33;;;66.43;;
13083;SDS011;6608;48.790;9.198;2022-11-15T11:19:54;154.93;;;67.27;;
13083;SDS011;6608;48.790;9.198;2022-11-15T11:22:23;160.30;;;70.87;;
13083;SDS011;6608;48.790;9.198;2022-11-15T11:24:58;159.90;;;68.97;;
13083;SDS011;6608;48.790;9.198;2022-11-15T11:27:33;159.13;;;69.33;;
13083;SDS011;6608;48.790;9.198;2022-11-15T11:30:03;157.93;;;69.30;;
13083;SDS011;6608;48.790;9.198;2022-11-15T11:35:14;156.87;;;68.17;;
13083;SDS011;6608;48.790;9.198;2022-11-15T11:37:45;158.63;;;68.23;;
13083;SDS011;6608;48.790;9.198;2022-11-15T11:40:16;210.80;;;103.70;;
13083;SDS011;6608;48.790;9.198;2022-11-15T11:42:48;157.87;;;70.83;;
13083;SDS011;6608;48.790;9.198;2022-11-15T11:45:24;161.33;;;70.33;;
13083;SDS011;6608;48.790;9.198;2022-11-15T11:47:54;159.20;;;68.83;;
13083;SDS011;6608;48.790;9.198;2022-11-15T11:50:25;159.30;;;69.87;;
13083;SDS011;6608;48.790;9.198;2022-11-15T11:52:56;156.87;;;69.20;;
13083;SDS011;6608;48.790;9.198;2022-11-15T11:55:26;158.53;;;68.43;;
13083;SDS011;6608;48.790;9.198;2022-11-15T11:57:56;154.90;;;68.03;;
13083;SDS011;6608;48.790;9.198;2022-11-15T12:00:24;156.27;;;67.30;;
13083;SDS011;6608;48.790;9.198;2022-11-15T12:02:58;157.80;;;67.17;;
13083;SDS011;6608;48.790;9.198;2022-11-15T12:05:30;159.20;;;69.03;;
13083;SDS011;6608;48.790;9.198;2022-11-15T12:07:59;158.00;;;68.40;;
13083;SDS011;6608;48.790;9.198;2022-11-15T12:10:30;157.60;;;67.57;;
13083;SDS011;6608;48.790;9.198;2022-11-15T12:12:58;157.17;;;67.57;;
13083;SDS011;6608;48.790;9.198;2022-11-15T12:15:27;158.23;;;67.60;;
13083;SDS011;6608;48.790;9.198;2022-11-15T12:17:55;162.93;;;69.53;;
13083;SDS011;6608;48.790;9.198;2022-11-15T12:20:23;165.90;;;69.17;;
13083;SDS011;6608;48.790;9.198;2022-11-15T12:22:52;161.50;;;68.47;;
13083;SDS011;6608;48.790;9.198;2022-11-15T12:25:21;160.97;;;67.33;;
13083;SDS011;6608;48.790;9.198;2022-11-15T12:27:50;159.80;;;68.47;;
13083;SDS011;6608;48.790;9.198;2022-11-15T12:30:20;156.77;;;66.23;;
13083;SDS011;6608;48.790;9.198;2022-11-15T12:32:51;155.53;;;66.43;;
13083;SDS011;6608;48.790;9.198;2022-11-15T12:35:27;157.43;;;67.33;;
13083;SDS011;6608;48.790;9.198;2022-11-15T12:37:54;157.83;;;66.37;;
13083;SDS011;6608;48.790;9.198;2022-11-15T12:40:27;156.43;;;66.67;;
13083;SDS011;6608;48.790;9.198;2022-11-15T12:43:03;159.80;;;65.07;;
13083;SDS011;6608;48.790;9.198;2022-11-15T12:45:31;154.10;;;66.67;;
13083;SDS011;6608;48.790;9.198;2022-11-15T12:48:23;157.80;;;67.17;;
13083;SDS011;6608;48.790;9.198;2022-11-15T12:50:57;156.50;;;66.60;;
13083;SDS011;6608;48.790;9.198;2022-11-15T12:53:26;156.30;;;67.13;;
13083;SDS011;6608;48.790;9.198;2022-11-15T12:58:40;154.63;;;66.53;;
13083;SDS011;6608;48.790;9.198;2022-11-15T13:01:08;152.33;;;65.70;;
13083;SDS011;6608;48.790;9.198;2022-11-15T13:03:34;153.93;;;65.90;;
13083;SDS011;6608;48.790;9.198;2022-11-15T13:06:03;157.63;;;65.80;;
13083;SDS011;6608;48.790;9.198;2022-11-15T13:14:04;153.43;;;65.40;;
13083;SDS011;6608;48.790;9.198;2022-11-15T13:16:55;152.37;;;65.03;;
13083;SDS011;6608;48.790;9.198;2022-11-15T13:19:23;156.63;;;64.07;;
13083;SDS011;6608;48.790;9.198;2022-11-15T13:21:50;151.33;;;64.93;;
13083;SDS011;6608;48.790;9.198;2022-11-15T13:24:37;150.90;;;64.57;;
13083;SDS011;6608;48.790;9.198;2022-11-15T13:27:09;150.83;;;65.47;;
13083;SDS011;6608;48.790;9.198;2022-11-15T13:29:37;151.17;;;65.07;;
13083;SDS011;6608;48.790;9.198;2022-11-15T13:32:03;150.83;;;64.70;;
13083;SDS011;6608;48.790;9.198;2022-11-15T13:34:30;152.57;;;65.57;;
13083;SDS011;6608;48.790;9.198;2022-11-15T13:36:58;152.70;;;66.70;;
13083;SDS011;6608;48.790;9.198;2022-11-15T13:39:26;150.63;;;63.63;;
13083;SDS011;6608;48.790;9.198;2022-11-15T13:41:53;150.30;;;64.13;;
13083;SDS011;6608;48.790;9.198;2022-11-15T13:44:20;150.47;;;62.23;;
13083;SDS011;6608;48.790;9.198;2022-11-15T13:46:48;151.57;;;64.60;;
13083;SDS011;6608;48.790;9.198;2022-11-15T13:49:15;150.23;;;65.03;;
13083;SDS011;6608;48.790;9.198;2022-11-15T13:51:43;152.50;;;64.27;;
13083;SDS011;6608;48.790;9.198;2022-11-15T13:54:14;151.30;;;64.50;;
13083;SDS011;6608;48.790;9.198;2022-11-15T13:56:42;150.47;;;65.00;;
13083;SDS011;6608;48.790;9.198;2022-11-15T13:59:10;164.67;;;74.97;;
13083;SDS011;6608;48.790;9.198;2022-11-15T14:01:40;154.17;;;66.67;;
13083;SDS011;6608;48.790;9.198;2022-11-15T14:04:11;150.23;;;64.00;;
13083;SDS011;6608;48.790;9.198;2022-11-15T14:06:43;149.27;;;64.63;;
13083;SDS011;6608;48.790;9.198;2022-11-15T14:09:16;149.43;;;63.73;;
13083;SDS011;6608;48.790;9.198;2022-11-15T14:11:51;150.50;;;63.27;;
13083;SDS011;6608;48.790;9.198;2022-11-15T14:14:17;150.97;;;63.37;;
13083;SDS011;6608;48.790;9.198;2022-11-15T14:16:45;151.50;;;64.77;;
13083;SDS011;6608;48.790;9.198;2022-11-15T14:22:13;148.93;;;62.93;;
13083;SDS011;6608;48.790;9.198;2022-11-15T14:24:40;150.30;;;63.27;;
13083;SDS011;6608;48.790;9.198;2022-11-15T14:27:20;150.23;;;63.40;;
13083;SDS011;6608;48.790;9.198;2022-11-15T14:29:46;153.27;;;65.70;;
13083;SDS011;6608;48.790;9.198;2022-11-15T14:32:14;164.60;;;74.53;;
13083;SDS011;6608;48.790;9.198;2022-11-15T14:34:40;151.10;;;66.90;;
13083;SDS011;6608;48.790;9.198;2022-11-15T14:37:19;149.80;;;65.00;;
13083;SDS011;6608;48.790;9.198;2022-11-15T14:39:48;147.73;;;64.03;;
13083;SDS011;6608;48.790;9.198;2022-11-15T14:42:14;149.53;;;65.20;;
13083;SDS011;6608;48.790;9.198;2022-11-15T14:44:41;152.20;;;66.17;;